Airfield :
LOGIN :

Register | Disclaimer

   EN    FR    IT 

 










Legend :    VFR   Marginal VFR   IFR   Intensive IFR   Very Intensive IFR
Visi :
Ceiling :
>= 8 km
>= 3000ft
5 to 8 km
1000 to 3000 ft
1500m to 5 km
500 to 1000 ft
800 to 1500m
200 to 500 ft
< 800m
< 200 ft
Symbols :   Thunderstorms  Fog  Heavy snow  Heavy precipitations  Wind > 20 kt
SIGMETs :     Misc.  Thunderstorms  Icing  Turbulence  Mountain Waves  Volcanic Ashes






- Airport Elevation : 266 ft
- IATA code : NCL


EGNT - Newcastle

CURRENT METAR :
  • 301920Z 16001KT 9999 VCSH FEW018 FEW020CB 16/13 Q1010

EXPIRED METARs :
  • 301850Z VRB01KT 9999 VCSH FEW018 FEW020CB 16/14 Q1010
  • 301820Z VRB02KT 9999 VCSH FEW018 FEW020CB 16/13 Q1010
  • 301750Z 11003KT 050V200 9999 FEW006 SCT020CB 16/14 Q1010
  • 301720Z 08004KT 9999 7000SE VCSH FEW006 SCT020CB 15/14 Q1010
  • 301650Z 03005KT 9999 7000NE VCSH FEW015CB SCT020 14/14 Q1010

TAF COR TAF EGNT
Valid from the 30 at 18:00 until the 01 at 18:00 UTC


301708Z 3018/0118 30005KT 9999 SCT025
TEMPO 3018/3020 6000 SHRA
PROB30
TEMPO 3018/3019 4000 +SHRA +TSRA
TEMPO 0100/0108 7000 SHRA
PROB30
TEMPO 0101/0107 4000 +SHRA BKN014 BKN035CB
TEMPO 0108/0117 7000 SHRA
ATIS : +44 191 214 3400



MET'MAP, your aeronautical weather chart ! - Copyright ORBIFLY December 2007 - Disclaimer

ORBIFLY MET'MAP TEAM :

Programming & Development : Alexandra Zaïnal
Original concept : Baudouin d'Aumeries
Technical & hardware support : Manuel Goepfert
Assistance : Marc-Olivier Méhu




SOURCES & CREDITS :

   NOAA